createdAt,value
2022-08-29T03:48:20.047Z,99.90
2022-08-29T03:50:47.392Z,99.90
2022-08-29T03:53:14.445Z,99.90
2022-08-29T03:55:42.213Z,99.90
2022-08-29T03:58:09.467Z,99.90
2022-08-29T04:00:36.885Z,99.90
2022-08-29T04:03:04.491Z,99.90
2022-08-29T04:05:31.827Z,99.90
2022-08-29T04:08:00.230Z,99.90
2022-08-29T04:10:34.828Z,99.90
2022-08-29T04:13:02.871Z,99.90
2022-08-29T04:15:32.724Z,99.90
2022-08-29T04:18:02.030Z,99.90
2022-08-29T04:20:31.775Z,99.90
2022-08-29T04:23:00.077Z,99.90
2022-08-29T04:25:31.995Z,99.90
2022-08-29T04:28:01.676Z,99.90
2022-08-29T04:30:28.962Z,99.90
2022-08-29T04:32:56.446Z,99.90
2022-08-29T04:35:24.390Z,99.90
2022-08-29T04:37:51.723Z,99.90
2022-08-29T04:40:21.330Z,99.90
2022-08-29T04:42:49.986Z,99.90
2022-08-29T04:45:20.546Z,99.90
2022-08-29T04:47:47.974Z,99.90
2022-08-29T04:50:18.582Z,99.90
2022-08-29T04:52:46.072Z,99.90
2022-08-29T04:55:17.116Z,99.90
2022-08-29T04:57:46.800Z,99.90
2022-08-29T05:00:19.068Z,99.90
2022-08-29T05:02:46.907Z,99.90
2022-08-29T05:05:15.978Z,99.90
2022-08-29T05:07:43.944Z,99.90
2022-08-29T05:10:17.676Z,99.90
2022-08-29T05:12:45.774Z,99.90
2022-08-29T05:15:14.502Z,99.90
2022-08-29T05:17:41.950Z,99.90
2022-08-29T05:20:09.865Z,99.90
2022-08-29T05:22:39.169Z,99.90
2022-08-29T05:25:07.581Z,99.90
2022-08-29T05:27:34.630Z,99.90
2022-08-29T05:30:03.132Z,99.90
2022-08-29T05:32:30.429Z,99.90
2022-08-29T05:34:57.989Z,99.90
2022-08-29T05:37:25.487Z,99.90
2022-08-29T05:39:52.941Z,99.90
2022-08-29T05:42:22.497Z,99.90
2022-08-29T05:44:50.289Z,99.90
2022-08-29T05:47:19.520Z,99.90
2022-08-29T05:49:48.801Z,99.90
2022-08-29T05:52:18.455Z,99.90
2022-08-29T05:54:46.020Z,99.90
2022-08-29T05:57:18.957Z,99.90
2022-08-29T05:59:51.936Z,99.90
2022-08-29T06:02:21.013Z,99.90
2022-08-29T06:04:48.779Z,99.90
2022-08-29T06:07:15.986Z,99.90
2022-08-29T06:09:44.178Z,99.90
2022-08-29T06:12:13.722Z,99.90
2022-08-29T06:14:41.378Z,99.90
2022-08-29T06:17:17.555Z,99.90
2022-08-29T06:19:44.768Z,99.90
2022-08-29T06:22:11.806Z,99.90
2022-08-29T06:24:40.220Z,99.90
2022-08-29T06:27:13.314Z,99.90
2022-08-29T06:29:43.178Z,99.90
2022-08-29T06:32:12.210Z,99.90
2022-08-29T06:34:39.879Z,99.90
2022-08-29T06:37:07.101Z,99.90
2022-08-29T06:39:34.257Z,99.90
2022-08-29T06:42:01.662Z,99.90
2022-08-29T06:44:31.719Z,99.90
2022-08-29T06:46:59.622Z,99.90
2022-08-29T06:49:28.061Z,99.90
2022-08-29T06:51:58.296Z,99.90
2022-08-29T06:54:27.855Z,99.90
2022-08-29T06:56:57.056Z,99.90
2022-08-29T06:59:24.305Z,99.90
2022-08-29T07:01:51.811Z,99.90
2022-08-29T07:04:20.080Z,99.90
2022-08-29T07:06:48.974Z,99.90
2022-08-29T07:09:16.841Z,99.90
2022-08-29T07:11:44.414Z,99.90
2022-08-29T07:14:12.806Z,99.90
2022-08-29T07:16:41.272Z,99.90
2022-08-29T07:19:10.448Z,99.90
2022-08-29T07:21:38.216Z,99.90
2022-08-29T07:24:06.793Z,99.90
2022-08-29T07:26:39.131Z,99.90
2022-08-29T07:30:26.564Z,99.90
2022-08-29T07:32:53.623Z,99.90
2022-08-29T07:35:30.102Z,99.90
2022-08-29T07:38:03.900Z,99.90
2022-08-29T07:40:31.108Z,99.90
2022-08-29T07:42:58.555Z,99.90
2022-08-29T07:45:25.694Z,99.90
2022-08-29T07:47:53.083Z,99.90
2022-08-29T07:50:20.073Z,99.60
2022-08-29T07:52:48.605Z,99.00
2022-08-29T07:55:15.661Z,98.90
2022-08-29T07:57:42.720Z,98.30
2022-08-29T08:00:12.017Z,97.30
2022-08-29T08:02:41.754Z,97.40
2022-08-29T08:05:09.197Z,95.40
2022-08-29T08:07:36.809Z,95.80
2022-08-29T08:10:08.749Z,96.90
2022-08-29T08:12:35.908Z,94.50
2022-08-29T08:15:03.760Z,94.00
2022-08-29T08:17:30.827Z,94.60
2022-08-29T08:19:57.824Z,94.50
2022-08-29T08:22:24.843Z,93.00
2022-08-29T08:24:51.853Z,94.50
2022-08-29T08:27:18.905Z,93.10
2022-08-29T08:29:46.132Z,93.50
2022-08-29T08:32:13.413Z,94.70
2022-08-29T08:34:40.397Z,95.00
2022-08-29T08:37:08.415Z,92.20
2022-08-29T08:39:36.934Z,92.10
2022-08-29T08:42:42.701Z,91.40
2022-08-29T08:47:00.245Z,90.30
2022-08-29T08:50:16.134Z,90.30
2022-08-29T08:53:19.410Z,87.50
2022-08-29T08:55:54.504Z,86.40
2022-08-29T08:58:33.340Z,84.60
2022-08-29T09:01:16.066Z,85.50
2022-08-29T09:04:11.724Z,86.30
2022-08-29T09:07:20.492Z,83.80
2022-08-29T09:10:07.776Z,86.60
2022-08-29T09:13:19.535Z,86.00
2022-08-29T09:15:50.491Z,82.20
2022-08-29T09:18:35.226Z,85.70
2022-08-29T09:21:39.521Z,81.60
2022-08-29T09:24:06.024Z,84.10
2022-08-29T09:26:35.062Z,87.70
2022-08-29T09:29:02.062Z,85.60
2022-08-29T09:31:32.772Z,80.30
2022-08-29T09:34:06.683Z,81.50
2022-08-29T09:36:54.612Z,80.00
2022-08-29T09:39:28.640Z,78.50
2022-08-29T09:42:19.306Z,82.00
2022-08-29T09:45:08.788Z,78.20
2022-08-29T09:47:36.139Z,78.60
2022-08-29T09:50:20.161Z,79.90
2022-08-29T09:53:02.560Z,77.90
2022-08-29T09:55:42.464Z,73.60
2022-08-29T09:58:40.521Z,71.70
2022-08-29T10:01:17.641Z,71.60
2022-08-29T10:04:00.719Z,71.80
2022-08-29T10:06:32.332Z,64.70
2022-08-29T10:09:27.986Z,63.20
2022-08-29T10:12:08.079Z,69.30
2022-08-29T10:14:40.819Z,70.50
2022-08-29T10:17:58.727Z,67.70
2022-08-29T10:20:37.321Z,63.80
2022-08-29T10:23:17.517Z,61.00
2022-08-29T10:25:44.783Z,59.70
2022-08-29T10:28:43.968Z,59.70
2022-08-29T10:31:30.943Z,57.30
2022-08-29T10:34:21.950Z,58.70
2022-08-29T10:37:07.647Z,59.30
2022-08-29T10:40:03.342Z,56.50
2022-08-29T10:42:33.354Z,56.80
2022-08-29T10:45:28.411Z,55.50
2022-08-29T10:48:14.410Z,56.60
2022-08-29T10:51:09.152Z,53.30
2022-08-29T10:53:42.747Z,53.40
2022-08-29T10:56:33.769Z,54.00
2022-08-29T10:59:25.835Z,51.30
2022-08-29T11:02:19.279Z,51.30
2022-08-29T11:04:51.931Z,49.60
2022-08-29T11:07:36.844Z,51.70
2022-08-29T11:10:30.625Z,47.40
2022-08-29T11:13:10.426Z,51.90
2022-08-29T11:15:45.500Z,48.60
2022-08-29T11:18:48.444Z,48.40
2022-08-29T11:21:53.240Z,47.30
2022-08-29T11:24:29.723Z,45.80
2022-08-29T11:27:27.145Z,47.40
2022-08-29T11:30:02.698Z,47.80
2022-08-29T11:33:22.016Z,48.90
2022-08-29T11:36:17.477Z,47.90
2022-08-29T11:39:29.358Z,45.30
2022-08-29T11:42:01.371Z,48.10
2022-08-29T11:44:33.770Z,42.40
2022-08-29T11:47:40.463Z,42.50
2022-08-29T11:50:35.128Z,39.20
2022-08-29T11:53:33.826Z,42.40
2022-08-29T12:15:46.514Z,44.90
2022-08-29T12:18:36.601Z,35.40
2022-08-29T12:21:34.249Z,34.60
2022-08-29T12:24:01.797Z,35.50
2022-08-29T12:26:46.601Z,35.50
2022-08-29T12:29:31.201Z,37.70
2022-08-29T12:32:40.384Z,36.20
2022-08-29T12:35:54.515Z,37.50
2022-08-29T12:38:50.075Z,33.20
2022-08-29T12:41:51.297Z,35.70
2022-08-29T12:44:27.104Z,32.50
2022-08-29T12:47:02.420Z,32.80
2022-08-29T12:49:56.005Z,36.20
2022-08-29T12:52:31.711Z,36.10
2022-08-29T12:55:17.904Z,34.50
2022-08-29T12:57:50.165Z,34.80
2022-08-29T13:00:24.878Z,35.50
2022-08-29T13:03:14.880Z,34.20
2022-08-29T13:05:43.421Z,32.00
2022-08-29T13:08:15.243Z,31.20
2022-08-29T13:11:00.293Z,31.10
2022-08-29T13:13:28.508Z,31.50
2022-08-29T13:16:00.433Z,28.30
2022-08-29T13:18:29.420Z,29.90
2022-08-29T13:21:33.474Z,28.50
2022-08-29T13:24:21.196Z,31.00
2022-08-29T13:27:05.717Z,28.40
2022-08-29T13:29:42.039Z,31.10
2022-08-29T13:32:26.998Z,29.00
2022-08-29T13:35:28.704Z,29.30
2022-08-29T13:38:30.946Z,29.30
2022-08-29T13:40:59.019Z,28.80
2022-08-29T13:43:44.899Z,28.90
2022-08-29T13:46:19.203Z,27.60
2022-08-29T13:48:46.684Z,28.30
2022-08-29T13:51:13.792Z,29.00
2022-08-29T13:53:45.337Z,27.50
2022-08-29T13:56:33.363Z,26.30
2022-08-29T13:59:00.638Z,26.60
2022-08-29T14:02:07.174Z,26.30
2022-08-29T14:04:36.830Z,25.10
2022-08-29T14:07:02.706Z,24.90
2022-08-29T14:09:34.571Z,25.50
2022-08-29T14:12:02.521Z,25.40
2022-08-29T14:14:29.561Z,23.60
2022-08-29T14:16:57.073Z,24.40
2022-08-29T14:19:25.011Z,24.30
2022-08-29T14:21:52.210Z,23.50
2022-08-29T14:24:19.293Z,25.30
2022-08-29T14:26:48.822Z,25.30
2022-08-29T14:29:27.261Z,23.90
2022-08-29T14:31:58.473Z,22.90
2022-08-29T14:34:30.857Z,24.70
2022-08-29T14:37:00.961Z,24.60
2022-08-29T14:39:28.426Z,23.00
2022-08-29T14:41:55.985Z,23.30
2022-08-29T14:44:23.711Z,21.30
2022-08-29T14:46:51.298Z,22.30
2022-08-29T14:49:19.137Z,20.50
2022-08-29T14:51:46.295Z,19.50
2022-08-29T14:54:13.394Z,18.60
2022-08-29T14:56:49.934Z,19.80
2022-08-29T14:59:19.318Z,18.30
2022-08-29T15:01:53.803Z,18.10
2022-08-29T15:04:36.055Z,18.00
2022-08-29T15:07:07.607Z,19.70
2022-08-29T15:09:35.026Z,18.80
2022-08-29T15:12:02.534Z,17.20
2022-08-29T15:14:29.901Z,18.30
2022-08-29T15:16:56.956Z,16.80
2022-08-29T15:19:53.766Z,17.50
2022-08-29T15:22:12.356Z,16.90
2022-08-29T15:24:39.979Z,16.60
2022-08-29T15:27:07.761Z,16.50
2022-08-29T15:29:37.452Z,17.30
2022-08-29T15:32:05.684Z,17.40
2022-08-29T15:34:33.809Z,17.20
2022-08-29T15:37:01.723Z,15.10
2022-08-29T15:39:29.041Z,17.40
2022-08-29T15:41:57.635Z,17.20
2022-08-29T15:44:25.401Z,17.70
2022-08-29T15:46:52.648Z,17.80
2022-08-29T15:49:21.595Z,18.30
2022-08-29T15:51:49.383Z,18.40
2022-08-29T15:54:16.890Z,19.20
2022-08-29T15:56:44.219Z,20.60
2022-08-29T15:59:13.205Z,21.30
2022-08-29T16:01:44.834Z,23.20
2022-08-29T16:04:12.928Z,23.50
2022-08-29T16:06:40.310Z,23.20
2022-08-29T16:09:15.914Z,21.20
2022-08-29T16:11:52.117Z,21.00
2022-08-29T16:17:08.423Z,24.50
2022-08-29T16:19:41.864Z,26.30
2022-08-29T16:22:09.449Z,26.50
2022-08-29T16:24:36.520Z,26.80
2022-08-29T16:27:03.831Z,27.80
2022-08-29T16:29:31.507Z,26.30
2022-08-29T16:31:58.724Z,27.10
2022-08-29T16:34:27.859Z,27.50
2022-08-29T16:36:59.565Z,26.10
2022-08-29T16:39:27.651Z,26.50
2022-08-29T16:41:55.182Z,27.40
2022-08-29T16:44:22.792Z,26.40
2022-08-29T16:46:49.898Z,26.40
2022-08-29T16:49:16.944Z,25.10
2022-08-29T16:51:43.983Z,26.00
2022-08-29T16:54:12.462Z,27.10
2022-08-29T16:56:39.870Z,27.30
2022-08-29T16:59:07.616Z,28.90
2022-08-29T17:01:43.682Z,29.70
2022-08-29T17:04:20.271Z,31.80
2022-08-29T17:06:48.248Z,32.80
2022-08-29T17:09:17.616Z,33.30
2022-08-29T17:11:45.060Z,33.90
2022-08-29T17:14:13.241Z,38.50
2022-08-29T17:16:42.574Z,41.90
2022-08-29T17:19:09.923Z,44.30
2022-08-29T17:21:37.019Z,45.90
2022-08-29T17:24:06.881Z,47.90
2022-08-29T17:26:40.749Z,49.20
2022-08-29T17:29:08.777Z,50.10
2022-08-29T17:31:39.131Z,47.60
2022-08-29T17:34:07.912Z,45.10
2022-08-29T17:36:36.732Z,47.50
2022-08-29T17:39:05.339Z,47.00
2022-08-29T17:41:33.654Z,46.20
2022-08-29T17:44:02.234Z,44.60
2022-08-29T17:46:29.733Z,45.70
2022-08-29T17:52:46.994Z,47.80
2022-08-29T17:55:14.516Z,47.00
2022-08-29T17:57:41.553Z,48.20
2022-08-29T18:00:09.730Z,50.50
2022-08-29T18:02:39.489Z,53.00
2022-08-29T18:05:10.059Z,56.30
2022-08-29T18:07:39.402Z,56.80
2022-08-29T18:12:35.217Z,59.30
2022-08-29T18:15:03.445Z,62.30
2022-08-29T18:17:32.192Z,65.00
2022-08-29T18:20:01.374Z,63.00
2022-08-29T18:22:29.556Z,64.10
2022-08-29T18:24:57.918Z,65.50
2022-08-29T18:27:26.091Z,68.00
2022-08-29T18:29:54.123Z,69.30
2022-08-29T18:32:23.516Z,69.70
2022-08-29T18:34:50.569Z,70.30
2022-08-29T18:37:17.816Z,69.30
2022-08-29T18:39:45.828Z,70.60
2022-08-29T18:42:30.406Z,71.90
2022-08-29T18:45:00.218Z,70.20
2022-08-29T18:47:27.272Z,72.00
2022-08-29T18:50:13.384Z,72.90
2022-08-29T18:52:40.627Z,71.40
2022-08-29T18:55:08.056Z,71.50
2022-08-29T18:57:35.329Z,70.70
2022-08-29T19:00:03.336Z,69.90
2022-08-29T19:02:30.439Z,70.00
2022-08-29T19:04:57.599Z,70.40
2022-08-29T19:07:24.845Z,69.90
2022-08-29T19:09:53.070Z,69.90
2022-08-29T19:12:20.141Z,67.50
2022-08-29T19:14:47.288Z,68.20
2022-08-29T19:17:14.464Z,68.50
2022-08-29T19:20:00.793Z,69.10
2022-08-29T19:22:28.678Z,69.30
2022-08-29T19:24:55.681Z,69.00
2022-08-29T19:27:42.226Z,69.30
2022-08-29T19:30:11.319Z,70.90
2022-08-29T19:32:38.619Z,73.90
2022-08-29T19:35:06.450Z,75.10
2022-08-29T19:37:33.788Z,76.60
2022-08-29T19:40:01.237Z,78.00
2022-08-29T19:42:28.539Z,77.90
2022-08-29T19:44:56.390Z,79.30
2022-08-29T19:47:23.993Z,78.20
2022-08-29T19:49:52.411Z,81.10
2022-08-29T19:52:19.418Z,81.50
2022-08-29T19:54:46.595Z,82.20
2022-08-29T19:57:14.563Z,83.30
2022-08-29T19:59:43.593Z,84.80
2022-08-29T20:02:10.829Z,86.20
2022-08-29T20:04:38.393Z,85.40
2022-08-29T20:07:05.771Z,85.90
2022-08-29T20:09:33.119Z,87.20
2022-08-29T20:12:00.815Z,87.50
2022-08-29T20:14:28.072Z,86.60
2022-08-29T20:16:55.265Z,86.00
2022-08-29T20:19:22.459Z,85.90
2022-08-29T20:21:50.517Z,86.40
2022-08-29T20:24:17.941Z,88.20
2022-08-29T20:26:49.615Z,91.00
2022-08-29T20:29:17.282Z,91.20
2022-08-29T20:31:45.195Z,91.00
2022-08-29T20:34:12.560Z,91.40
2022-08-29T20:36:58.191Z,92.70
2022-08-29T20:39:25.716Z,92.60
2022-08-29T20:41:58.042Z,92.90
2022-08-29T20:44:33.491Z,94.10
2022-08-29T20:47:01.280Z,94.60
2022-08-29T20:49:28.377Z,96.10
2022-08-29T20:51:55.611Z,95.10
2022-08-29T20:54:24.545Z,95.40
2022-08-29T20:56:52.153Z,96.60
2022-08-29T20:59:21.627Z,97.90
2022-08-29T21:01:50.009Z,98.10
2022-08-29T21:04:36.190Z,98.50
2022-08-29T21:07:09.288Z,98.90
2022-08-29T21:09:40.483Z,97.90
2022-08-29T21:12:08.355Z,97.40
2022-08-29T21:14:35.709Z,97.30
2022-08-29T21:17:03.141Z,97.50
2022-08-29T21:19:30.302Z,97.20
2022-08-29T21:22:01.772Z,98.40
2022-08-29T21:24:29.657Z,98.50
2022-08-29T21:26:57.142Z,99.90
2022-08-29T21:29:24.896Z,99.90
2022-08-29T21:31:54.050Z,99.90
2022-08-29T21:34:22.336Z,99.90
2022-08-29T21:36:49.916Z,99.90
2022-08-29T21:39:21.570Z,99.90
2022-08-29T21:41:56.580Z,99.90
2022-08-29T21:44:23.881Z,99.90
2022-08-29T21:46:51.062Z,99.90
2022-08-29T21:49:21.532Z,99.90
2022-08-29T21:51:48.944Z,99.90
2022-08-29T21:54:17.809Z,99.90
2022-08-29T21:56:45.570Z,99.90
2022-08-29T21:59:14.078Z,99.90
2022-08-29T22:01:41.597Z,99.90
2022-08-29T22:04:19.395Z,99.90
2022-08-29T22:06:57.214Z,99.90
2022-08-29T22:09:24.294Z,99.90
2022-08-29T22:11:51.961Z,99.90
2022-08-29T22:14:19.190Z,99.90
2022-08-29T22:16:46.285Z,99.90
2022-08-29T22:19:15.242Z,99.90
2022-08-29T22:21:47.972Z,99.90
2022-08-29T22:24:16.641Z,99.90
2022-08-29T22:26:44.869Z,99.90
2022-08-29T22:29:14.196Z,99.90
2022-08-29T22:31:42.664Z,99.90
2022-08-29T22:34:14.469Z,99.90
2022-08-29T22:36:41.830Z,99.90
2022-08-29T22:39:09.476Z,99.90
2022-08-29T22:41:36.745Z,99.90
2022-08-29T22:46:52.925Z,99.90
2022-08-29T22:49:19.979Z,99.90
2022-08-29T22:51:48.257Z,99.90
2022-08-29T22:54:34.005Z,99.90
2022-08-29T22:57:12.112Z,99.90
2022-08-29T22:59:40.361Z,99.90
2022-08-29T23:02:08.015Z,99.90
2022-08-29T23:04:36.004Z,99.90
2022-08-29T23:07:03.781Z,99.90
2022-08-29T23:09:35.616Z,99.90
2022-08-29T23:12:05.425Z,99.90
2022-08-29T23:14:34.866Z,99.90
2022-08-29T23:17:02.618Z,99.90
2022-08-29T23:19:29.699Z,99.90
2022-08-29T23:21:58.145Z,99.90
2022-08-29T23:24:26.307Z,99.90
2022-08-29T23:26:53.583Z,99.90
2022-08-29T23:29:20.889Z,99.90
2022-08-29T23:31:48.042Z,99.90
2022-08-29T23:34:15.111Z,99.90
2022-08-29T23:36:42.155Z,99.90
2022-08-29T23:39:09.291Z,99.90
2022-08-29T23:41:36.696Z,99.90
2022-08-29T23:44:04.143Z,99.90
2022-08-29T23:46:31.226Z,99.90
2022-08-29T23:48:58.528Z,99.90
2022-08-29T23:51:25.546Z,99.90
2022-08-29T23:53:52.609Z,99.90
2022-08-29T23:56:21.607Z,99.90
2022-08-29T23:58:48.661Z,99.90
